createdAt,value
2023-05-10T00:03:36.538Z,41.95
2023-05-10T00:07:52.889Z,42.52
2023-05-10T00:12:09.229Z,43.07
2023-05-10T00:16:25.688Z,44.13
2023-05-10T00:20:42.043Z,43.43
2023-05-10T00:24:58.595Z,44.64
2023-05-10T00:29:14.922Z,43.63
2023-05-10T00:33:31.171Z,44.54
2023-05-10T00:37:47.658Z,44.66
2023-05-10T00:42:05.385Z,45.04
2023-05-10T00:46:21.787Z,45.35
2023-05-10T00:50:38.280Z,45.45
2023-05-10T00:54:54.826Z,45.35
2023-05-10T00:59:11.324Z,45.26
2023-05-10T01:03:27.854Z,45.76
2023-05-10T01:07:44.159Z,45.91
2023-05-10T01:12:01.035Z,46.32
2023-05-10T01:16:17.584Z,45.29
2023-05-10T01:20:41.377Z,45.72
2023-05-10T01:25:16.436Z,46.56
2023-05-10T01:30:15.658Z,46.44
2023-05-10T01:34:42.714Z,47.43
2023-05-10T01:39:21.694Z,46.94
2023-05-10T01:44:16.034Z,47.50
2023-05-10T01:48:32.730Z,47.67
2023-05-10T01:52:55.970Z,47.51
2023-05-10T01:57:15.375Z,47.99
2023-05-10T02:01:31.934Z,48.71
2023-05-10T02:05:49.720Z,48.71
2023-05-10T02:10:10.578Z,48.72
2023-05-10T02:14:28.232Z,49.12
2023-05-10T02:18:45.330Z,49.79
2023-05-10T02:23:02.939Z,50.69
2023-05-10T02:27:21.119Z,50.31
2023-05-10T02:31:40.113Z,50.50
2023-05-10T02:35:57.171Z,50.53
2023-05-10T02:40:14.275Z,51.37
2023-05-10T02:44:32.327Z,51.05
2023-05-10T02:48:48.671Z,51.09
2023-05-10T02:53:31.760Z,52.07
2023-05-10T02:57:55.936Z,50.98
2023-05-10T03:02:13.582Z,51.12
2023-05-10T03:06:29.938Z,51.29
2023-05-10T03:11:04.828Z,51.77
2023-05-10T03:15:29.837Z,51.30
2023-05-10T03:19:54.582Z,51.57
2023-05-10T03:24:13.564Z,51.52
2023-05-10T03:28:30.103Z,52.01
2023-05-10T03:32:46.669Z,51.86
2023-05-10T03:37:03.018Z,51.69
2023-05-10T03:41:19.330Z,52.15
2023-05-10T03:45:36.032Z,51.91
2023-05-10T03:49:52.330Z,51.68
2023-05-10T03:54:08.673Z,51.43
2023-05-10T03:58:24.973Z,52.59
2023-05-10T04:02:41.669Z,52.42
2023-05-10T04:06:58.130Z,52.96
2023-05-10T04:11:15.364Z,52.74
2023-05-10T04:15:31.630Z,53.22
2023-05-10T04:19:47.901Z,53.33
2023-05-10T04:24:04.450Z,53.94
2023-05-10T04:28:20.740Z,52.92
2023-05-10T04:32:37.465Z,53.37
2023-05-10T04:36:53.838Z,52.79
2023-05-10T04:41:11.515Z,53.27
2023-05-10T04:45:27.832Z,53.69
2023-05-10T04:49:44.179Z,54.31
2023-05-10T04:54:06.206Z,55.26
2023-05-10T04:58:23.203Z,55.03
2023-05-10T05:02:39.897Z,53.84
2023-05-10T05:06:56.453Z,54.45
2023-05-10T05:11:12.753Z,54.02
2023-05-10T05:15:29.218Z,53.01
2023-05-10T05:19:45.546Z,52.61
2023-05-10T05:24:02.047Z,53.56
2023-05-10T05:28:18.292Z,52.85
2023-05-10T05:32:35.688Z,52.69
2023-05-10T05:36:52.330Z,51.60
2023-05-10T05:41:08.599Z,51.79
2023-05-10T05:45:24.887Z,51.64
2023-05-10T05:49:41.340Z,50.95
2023-05-10T05:53:57.613Z,51.91
2023-05-10T05:58:13.873Z,50.21
2023-05-10T06:02:30.203Z,50.55
2023-05-10T06:06:46.920Z,49.48
2023-05-10T06:11:03.448Z,48.41
2023-05-10T06:15:19.798Z,48.07
2023-05-10T06:19:36.122Z,48.10
2023-05-10T06:23:52.475Z,47.87
2023-05-10T06:28:08.891Z,49.03
2023-05-10T06:32:25.181Z,47.87
2023-05-10T06:36:41.460Z,47.34
2023-05-10T06:40:58.388Z,46.48
2023-05-10T06:45:16.205Z,47.10
2023-05-10T06:49:32.725Z,47.28
2023-05-10T06:53:49.298Z,47.07
2023-05-10T06:58:05.957Z,45.17
2023-05-10T07:02:22.334Z,44.99
2023-05-10T07:06:38.637Z,45.50
2023-05-10T07:10:54.898Z,47.26
2023-05-10T07:15:11.466Z,45.64
2023-05-10T07:19:27.826Z,43.43
2023-05-10T07:23:45.248Z,45.52
2023-05-10T07:28:01.633Z,44.87
2023-05-10T07:32:17.953Z,44.18
2023-05-10T07:36:34.365Z,44.35
2023-05-10T07:40:50.574Z,45.58
2023-05-10T07:45:07.484Z,44.27
2023-05-10T07:49:25.586Z,44.41
2023-05-10T07:53:41.882Z,44.03
2023-05-10T07:57:58.143Z,43.74
2023-05-10T08:02:14.490Z,44.32
2023-05-10T08:06:31.410Z,45.16
2023-05-10T08:10:47.826Z,43.25
2023-05-10T08:15:04.594Z,43.62
2023-05-10T08:19:22.497Z,44.27
2023-05-10T08:23:38.882Z,44.81
2023-05-10T08:27:55.166Z,44.19
2023-05-10T08:32:11.737Z,44.73
2023-05-10T08:36:28.883Z,43.85
2023-05-10T08:40:46.042Z,42.73
2023-05-10T08:45:03.473Z,41.33
2023-05-10T08:49:21.258Z,40.73
2023-05-10T08:53:38.230Z,40.71
2023-05-10T08:57:54.737Z,38.66
2023-05-10T09:02:13.139Z,39.92
2023-05-10T09:06:29.984Z,41.31
2023-05-10T09:10:48.727Z,39.60
2023-05-10T09:15:06.269Z,40.15
2023-05-10T09:19:22.643Z,39.81
2023-05-10T09:23:38.881Z,39.24
2023-05-10T09:27:56.217Z,38.66
2023-05-10T09:32:13.918Z,39.56
2023-05-10T09:36:30.308Z,39.92
2023-05-10T09:40:57.691Z,37.24
2023-05-10T09:45:14.068Z,38.80
2023-05-10T09:49:30.996Z,39.40
2023-05-10T09:53:47.552Z,39.43
2023-05-10T09:58:04.068Z,38.79
2023-05-10T10:02:20.721Z,38.40
2023-05-10T10:06:41.148Z,37.83
2023-05-10T10:10:57.456Z,39.03
2023-05-10T10:15:16.573Z,36.04
2023-05-10T10:19:37.287Z,37.32
2023-05-10T10:23:54.456Z,38.61
2023-05-10T10:28:51.281Z,37.63
2023-05-10T10:33:48.099Z,36.90
2023-05-10T10:38:04.846Z,37.52
2023-05-10T10:42:51.058Z,35.14
2023-05-10T10:47:13.418Z,36.41
2023-05-10T10:51:32.465Z,35.51
2023-05-10T10:55:49.670Z,35.33
2023-05-10T11:00:25.847Z,33.99
2023-05-10T11:04:47.805Z,33.27
2023-05-10T11:09:11.424Z,31.51
2023-05-10T11:13:32.050Z,31.65
2023-05-10T11:17:53.302Z,32.72
2023-05-10T11:22:16.045Z,32.18
2023-05-10T11:26:38.891Z,31.58
2023-05-10T11:30:55.885Z,30.61
2023-05-10T11:35:13.164Z,29.17
2023-05-10T11:39:31.049Z,30.18
2023-05-10T11:43:53.207Z,28.80
2023-05-10T11:48:09.537Z,28.30
2023-05-10T11:52:26.160Z,30.20
2023-05-10T11:56:42.605Z,29.87
2023-05-10T12:01:00.229Z,26.75
2023-05-10T12:05:17.215Z,27.01
2023-05-10T12:09:43.167Z,28.45
2023-05-10T12:14:00.226Z,28.74
2023-05-10T12:18:23.876Z,27.62
2023-05-10T12:22:40.173Z,28.19
2023-05-10T12:31:30.131Z,26.14
2023-05-10T12:35:50.023Z,27.78
2023-05-10T12:40:09.302Z,28.32
2023-05-10T12:44:25.735Z,29.14
2023-05-10T12:48:43.109Z,28.53
2023-05-10T12:52:59.215Z,30.31
2023-05-10T12:57:16.049Z,29.03
2023-05-10T13:01:32.348Z,29.56
2023-05-10T13:05:48.607Z,32.06
2023-05-10T13:10:05.061Z,28.98
2023-05-10T13:14:24.388Z,29.79
2023-05-10T13:18:40.640Z,27.54
2023-05-10T13:22:56.815Z,27.18
2023-05-10T13:27:13.127Z,29.08
2023-05-10T13:31:29.534Z,28.13
2023-05-10T13:35:46.362Z,29.51
2023-05-10T13:40:03.054Z,29.59
2023-05-10T13:44:19.269Z,29.49
2023-05-10T13:48:36.864Z,29.61
2023-05-10T13:52:54.970Z,30.27
2023-05-10T13:57:13.018Z,30.29
2023-05-10T14:01:29.213Z,31.72
2023-05-10T14:05:46.406Z,31.83
2023-05-10T14:10:02.658Z,31.07
2023-05-10T14:14:18.873Z,30.56
2023-05-10T14:18:35.285Z,29.33
2023-05-10T14:22:51.599Z,28.65
2023-05-10T14:27:08.178Z,28.54
2023-05-10T14:31:25.908Z,28.53
2023-05-10T14:35:42.259Z,28.44
2023-05-10T14:39:58.672Z,28.59
2023-05-10T14:44:16.534Z,28.71
2023-05-10T14:48:32.732Z,30.88
2023-05-10T14:52:49.076Z,29.29
2023-05-10T14:57:05.276Z,30.06
2023-05-10T15:01:21.553Z,29.87
2023-05-10T15:05:38.872Z,29.11
2023-05-10T15:09:55.403Z,30.04
2023-05-10T15:14:11.547Z,28.38
2023-05-10T15:18:27.756Z,28.48
2023-05-10T15:22:43.945Z,29.29
2023-05-10T15:27:00.140Z,29.66
2023-05-10T15:31:16.471Z,30.75
2023-05-10T15:35:32.879Z,32.45
2023-05-10T15:39:49.025Z,32.42
2023-05-10T15:44:05.248Z,32.63
2023-05-10T15:48:21.453Z,32.78
2023-05-10T15:52:37.890Z,33.05
2023-05-10T15:56:55.262Z,34.00
2023-05-10T16:01:14.655Z,33.56
2023-05-10T16:05:33.856Z,33.56
2023-05-10T16:09:50.194Z,33.12
2023-05-10T16:14:07.357Z,34.31
2023-05-10T16:18:24.128Z,33.54
2023-05-10T16:22:40.790Z,33.30
2023-05-10T16:26:57.130Z,34.30
2023-05-10T16:31:14.134Z,34.33
2023-05-10T16:35:30.799Z,34.07
2023-05-10T16:39:47.136Z,34.24
2023-05-10T16:44:04.106Z,34.51
2023-05-10T16:48:20.426Z,35.65
2023-05-10T16:52:37.403Z,35.47
2023-05-10T16:56:53.691Z,35.74
2023-05-10T17:01:10.254Z,36.91
2023-05-10T17:05:27.338Z,35.83
2023-05-10T17:09:44.325Z,37.12
2023-05-10T17:14:01.637Z,37.01
2023-05-10T17:18:18.375Z,37.06
2023-05-10T17:22:34.729Z,37.07
2023-05-10T17:26:51.042Z,37.00
2023-05-10T17:31:07.383Z,37.00
2023-05-10T17:35:24.247Z,36.91
2023-05-10T17:39:40.536Z,37.68
2023-05-10T17:43:56.775Z,36.88
2023-05-10T17:48:13.676Z,36.77
2023-05-10T17:52:32.106Z,36.67
2023-05-10T17:56:50.533Z,36.79
2023-05-10T18:01:06.935Z,36.65
2023-05-10T18:05:23.748Z,36.83
2023-05-10T18:09:40.386Z,37.46
2023-05-10T18:13:56.713Z,37.63
2023-05-10T18:18:12.981Z,38.23
2023-05-10T18:22:29.283Z,37.99
2023-05-10T18:26:45.604Z,38.42
2023-05-10T18:31:02.060Z,38.92
2023-05-10T18:35:18.601Z,38.29
2023-05-10T18:39:36.800Z,39.37
2023-05-10T18:43:53.712Z,39.35
2023-05-10T18:48:10.265Z,39.33
2023-05-10T18:52:26.685Z,38.98
2023-05-10T18:56:45.426Z,38.89
2023-05-10T19:01:01.731Z,41.68
2023-05-10T19:05:18.545Z,40.54
2023-05-10T19:09:35.134Z,40.52
2023-05-10T19:13:51.646Z,40.20
2023-05-10T19:18:09.783Z,40.60
2023-05-10T19:22:44.934Z,40.54
2023-05-10T19:27:03.974Z,40.45
2023-05-10T19:31:21.265Z,41.22
2023-05-10T19:35:37.706Z,41.35
2023-05-10T19:39:54.474Z,41.09
2023-05-10T19:44:10.831Z,41.30
2023-05-10T19:48:27.609Z,40.81
2023-05-10T19:52:45.093Z,41.81
2023-05-10T19:57:01.357Z,41.21
2023-05-10T20:01:17.658Z,41.30
2023-05-10T20:05:34.030Z,41.01
2023-05-10T20:09:50.372Z,41.41
2023-05-10T20:14:06.789Z,41.56
2023-05-10T20:18:23.262Z,41.25
2023-05-10T20:22:40.128Z,41.33
2023-05-10T20:26:57.190Z,41.23
2023-05-10T20:31:13.508Z,41.40
2023-05-10T20:35:29.801Z,41.49
2023-05-10T20:39:47.035Z,42.33
2023-05-10T20:44:06.178Z,42.83
2023-05-10T20:48:22.525Z,42.34
2023-05-10T20:52:38.937Z,42.72
2023-05-10T20:56:55.195Z,43.32
2023-05-10T21:01:11.610Z,43.39
2023-05-10T21:05:28.067Z,43.74
2023-05-10T21:09:44.620Z,43.30
2023-05-10T21:14:01.030Z,42.19
2023-05-10T21:18:17.285Z,41.83
2023-05-10T21:22:33.630Z,42.00
2023-05-10T21:26:49.922Z,41.66
2023-05-10T21:31:06.789Z,41.94
2023-05-10T21:35:23.088Z,41.58
2023-05-10T21:39:39.342Z,41.84
2023-05-10T21:43:56.562Z,42.40
2023-05-10T21:48:13.591Z,42.12
2023-05-10T21:52:29.880Z,42.24
2023-05-10T21:56:46.222Z,42.45
2023-05-10T22:01:02.952Z,42.47
2023-05-10T22:05:21.612Z,42.47
2023-05-10T22:09:37.901Z,42.59
2023-05-10T22:13:54.374Z,42.97
2023-05-10T22:18:10.888Z,43.02
2023-05-10T22:22:27.250Z,42.86
2023-05-10T22:26:43.534Z,42.45
2023-05-10T22:30:59.944Z,43.49
2023-05-10T22:35:16.473Z,43.07
2023-05-10T22:39:33.540Z,43.74
2023-05-10T22:43:50.166Z,44.21
2023-05-10T22:48:08.839Z,44.08
2023-05-10T22:52:25.179Z,43.67
2023-05-10T22:56:41.660Z,43.48
2023-05-10T23:00:58.381Z,43.77
2023-05-10T23:05:14.772Z,43.87
2023-05-10T23:09:31.084Z,43.69
2023-05-10T23:13:47.551Z,43.27
2023-05-10T23:18:06.139Z,43.18
2023-05-10T23:22:22.450Z,43.59
2023-05-10T23:26:38.837Z,43.93
2023-05-10T23:30:58.818Z,44.41
2023-05-10T23:35:15.113Z,44.84
2023-05-10T23:39:31.347Z,44.57
2023-05-10T23:43:47.657Z,43.81
2023-05-10T23:48:04.052Z,44.92
2023-05-10T23:52:25.072Z,44.11
2023-05-10T23:56:41.542Z,44.39
